Lowell, Washington
Current Conditions -  °F | °C
As of 12:53 AM on Sunday 26 Oct 2014 (Local Time) from KPAE Reporting Station
Overcast Overcast  
Wind Chill: 50°   Ceiling: 6000
Heat Index: 50°   Visibility: 10mi
Dew Point: 46°   Wind: 14mph
Humidity: 86%   Direction: 190°S
Pressure: 29.75"   Gusts: NA
Location:  47.9451°N, 122.226°W
Report Text: KPAE 260753Z AUTO 19012KT 10SM BKN060 BKN085 OVC110 10/08 A2975 RMK AO2 RAE40 SLP074 P0000 T01000078 401560078
Loading
Personal Weather Stations






























Interactive Weather Map
Tropical Storm Tracking
New forecast layout! Learn more

10-Day Weather Forecast

Advertisements
Track Severe Weather on mobile